createdAt,value
2019-04-11T00:02:04.663Z,20.83
2019-04-11T00:04:37.911Z,21.53
2019-04-11T00:07:08.609Z,20.27
2019-04-11T00:09:39.285Z,21.13
2019-04-11T00:12:10.927Z,19.67
2019-04-11T00:14:42.161Z,21.60
2019-04-11T00:17:13.834Z,20.57
2019-04-11T00:19:45.394Z,20.80
2019-04-11T00:22:16.020Z,22.03
2019-04-11T00:24:47.195Z,21.03
2019-04-11T00:27:17.736Z,20.07
2019-04-11T00:29:48.202Z,19.33
2019-04-11T00:32:19.159Z,21.47
2019-04-11T00:34:49.650Z,20.73
2019-04-11T00:37:21.087Z,21.60
2019-04-11T00:39:52.120Z,21.90
2019-04-11T00:42:22.871Z,20.03
2019-04-11T00:44:53.886Z,19.70
2019-04-11T00:47:25.328Z,20.90
2019-04-11T00:49:56.838Z,24.20
2019-04-11T00:52:27.515Z,23.17
2019-04-11T00:54:58.022Z,21.43
2019-04-11T00:57:28.616Z,21.00
2019-04-11T00:59:59.168Z,20.07
2019-04-11T01:02:29.773Z,19.10
2019-04-11T01:05:01.276Z,19.07
2019-04-11T01:07:33.109Z,21.00
2019-04-11T01:10:06.580Z,19.67
2019-04-11T01:12:37.178Z,20.03
2019-04-11T01:15:09.456Z,19.00
2019-04-11T01:17:39.935Z,19.20
2019-04-11T01:20:11.318Z,18.83
2019-04-11T01:22:42.435Z,19.07
2019-04-11T01:25:13.322Z,17.77
2019-04-11T01:27:44.277Z,18.47
2019-04-11T01:30:17.006Z,18.90
2019-04-11T01:32:48.618Z,17.97
2019-04-11T01:35:19.343Z,17.93
2019-04-11T01:37:50.245Z,18.70
2019-04-11T01:40:21.366Z,19.10
2019-04-11T01:42:51.896Z,18.70
2019-04-11T01:45:23.840Z,18.70
2019-04-11T01:47:59.453Z,17.80
2019-04-11T01:50:32.866Z,20.33
2019-04-11T01:53:03.679Z,18.43
2019-04-11T01:55:34.749Z,18.87
2019-04-11T01:58:06.539Z,18.60
2019-04-11T02:00:39.925Z,18.20
2019-04-11T02:03:12.437Z,18.83
2019-04-11T02:05:43.309Z,18.10
2019-04-11T02:08:13.892Z,18.93
2019-04-11T02:10:45.300Z,18.10
2019-04-11T02:13:16.005Z,18.37
2019-04-11T02:15:46.475Z,17.70
2019-04-11T02:18:17.244Z,18.10
2019-04-11T02:20:47.845Z,16.93
2019-04-11T02:23:35.145Z,17.33
2019-04-11T02:26:23.558Z,18.73
2019-04-11T02:28:55.107Z,18.07
2019-04-11T02:31:26.436Z,18.30
2019-04-11T02:33:57.449Z,18.20
2019-04-11T02:36:30.062Z,19.20
2019-04-11T02:39:05.760Z,19.13
2019-04-11T02:41:35.046Z,19.13
2019-04-11T02:44:07.303Z,18.73
2019-04-11T02:46:47.489Z,17.43
2019-04-11T02:49:11.557Z,18.97
2019-04-11T02:51:43.026Z,20.20
2019-04-11T02:54:15.756Z,19.20
2019-04-11T02:56:48.793Z,19.50
2019-04-11T02:59:19.606Z,19.63
2019-04-11T03:01:50.999Z,18.83
2019-04-11T03:04:24.243Z,22.50
2019-04-11T03:06:55.329Z,26.33
2019-04-11T03:09:26.904Z,21.60
2019-04-11T03:11:59.084Z,21.70
2019-04-11T03:14:47.717Z,21.93
2019-04-11T03:17:14.026Z,22.00
2019-04-11T03:19:47.729Z,21.63
2019-04-11T03:22:08.108Z,21.83
2019-04-11T03:24:40.612Z,21.47
2019-04-11T03:27:12.026Z,20.80
2019-04-11T03:29:43.202Z,21.90
2019-04-11T03:33:14.857Z,21.70
2019-04-11T03:37:47.757Z,24.10
2019-04-11T03:40:15.130Z,24.00
2019-04-11T03:42:38.214Z,21.67
2019-04-11T03:45:22.681Z,22.23
2019-04-11T03:47:40.107Z,21.37
2019-04-11T03:50:08.396Z,21.43
2019-04-11T03:52:38.051Z,19.57
2019-04-11T03:55:09.049Z,20.03
2019-04-11T03:57:42.222Z,19.40
2019-04-11T04:00:15.402Z,19.57
2019-04-11T04:02:46.747Z,21.00
2019-04-11T04:05:18.271Z,20.80
2019-04-11T04:07:49.429Z,20.70
2019-04-11T04:10:23.428Z,21.50
2019-04-11T04:12:55.942Z,18.93
2019-04-11T04:15:55.783Z,20.90
2019-04-11T04:18:23.681Z,20.70
2019-04-11T04:21:06.403Z,23.27
2019-04-11T04:23:38.553Z,21.83
2019-04-11T04:26:11.565Z,22.67
2019-04-11T04:28:42.782Z,19.87
2019-04-11T04:31:13.978Z,18.10
2019-04-11T04:33:45.578Z,18.47
2019-04-11T04:36:18.246Z,18.67
2019-04-11T04:38:49.397Z,19.87
2019-04-11T04:41:30.997Z,20.47
2019-04-11T04:43:54.679Z,21.30
2019-04-11T04:46:39.517Z,19.40
2019-04-11T04:48:59.109Z,17.67
2019-04-11T04:51:31.175Z,21.00
2019-04-11T04:54:03.639Z,19.40
2019-04-11T04:56:34.917Z,19.93
2019-04-11T04:59:07.080Z,19.67
2019-04-11T05:01:39.339Z,20.23
2019-04-11T05:04:11.447Z,21.20
2019-04-11T05:06:46.743Z,28.10
2019-04-11T05:09:14.762Z,19.10
2019-04-11T05:11:46.526Z,20.17
2019-04-11T05:14:18.751Z,20.40
2019-04-11T05:16:50.450Z,20.30
2019-04-11T05:19:22.099Z,22.67
2019-04-11T05:21:54.092Z,37.50
2019-04-11T05:24:26.461Z,25.50
2019-04-11T05:26:57.890Z,24.70
2019-04-11T05:29:29.255Z,21.33
2019-04-11T05:31:59.821Z,20.00
2019-04-11T05:34:30.291Z,19.97
2019-04-11T05:37:01.816Z,19.70
2019-04-11T05:39:33.889Z,20.10
2019-04-11T05:42:05.084Z,21.50
2019-04-11T05:44:38.204Z,19.83
2019-04-11T05:47:09.009Z,21.20
2019-04-11T05:49:42.439Z,23.03
2019-04-11T05:52:13.438Z,19.80
2019-04-11T05:54:47.965Z,19.47
2019-04-11T05:57:21.313Z,22.33
2019-04-11T05:59:53.126Z,20.10
2019-04-11T06:02:35.591Z,19.03
2019-04-11T06:05:15.216Z,19.70
2019-04-11T06:07:59.989Z,19.20
2019-04-11T06:10:30.373Z,19.00
2019-04-11T06:13:03.069Z,19.93
2019-04-11T06:15:38.766Z,20.13
2019-04-11T06:18:10.355Z,20.30
2019-04-11T06:20:51.567Z,19.30
2019-04-11T06:23:35.488Z,22.90
2019-04-11T06:26:14.714Z,20.37
2019-04-11T06:28:45.293Z,21.63
2019-04-11T06:31:16.019Z,19.20
2019-04-11T06:33:49.109Z,21.33
2019-04-11T06:36:30.186Z,19.70
2019-04-11T06:39:17.361Z,21.00
2019-04-11T06:41:50.575Z,21.30
2019-04-11T06:44:21.649Z,20.73
2019-04-11T06:46:57.416Z,20.17
2019-04-11T06:49:39.809Z,20.90
2019-04-11T06:52:12.743Z,19.80
2019-04-11T06:54:56.804Z,21.17
2019-04-11T06:57:34.288Z,21.10
2019-04-11T07:00:10.640Z,20.97
2019-04-11T07:02:55.081Z,20.70
2019-04-11T07:05:28.850Z,19.83
2019-04-11T07:08:03.767Z,21.73
2019-04-11T07:10:36.231Z,20.93
2019-04-11T07:13:08.675Z,22.03
2019-04-11T07:15:40.799Z,21.97
2019-04-11T07:18:29.427Z,20.27
2019-04-11T07:21:02.742Z,20.60
2019-04-11T07:23:51.673Z,21.37
2019-04-11T07:26:25.113Z,21.17
2019-04-11T07:29:04.664Z,20.77
2019-04-11T07:31:46.239Z,20.57
2019-04-11T07:34:36.185Z,20.87
2019-04-11T07:37:15.030Z,21.33
2019-04-11T07:40:03.405Z,19.47
2019-04-11T07:42:41.265Z,22.17
2019-04-11T07:45:14.541Z,20.87
2019-04-11T07:47:55.140Z,22.53
2019-04-11T07:50:26.234Z,21.67
2019-04-11T07:52:58.761Z,22.57
2019-04-11T07:55:30.040Z,21.97
2019-04-11T07:58:19.404Z,21.63
2019-04-11T08:00:54.292Z,21.70
2019-04-11T08:03:38.243Z,21.77
2019-04-11T08:06:16.243Z,21.20
2019-04-11T08:08:49.431Z,21.93
2019-04-11T08:11:23.339Z,21.67
2019-04-11T08:14:12.536Z,20.77
2019-04-11T08:19:57.462Z,21.10
2019-04-11T08:22:32.935Z,22.13
2019-04-11T08:25:18.112Z,22.67
2019-04-11T08:28:00.673Z,25.13
2019-04-11T08:30:28.760Z,21.83
2019-04-11T08:33:00.876Z,22.70
2019-04-11T08:35:36.851Z,20.73
2019-04-11T08:38:18.458Z,22.33
2019-04-11T08:41:05.821Z,21.77
2019-04-11T08:43:37.502Z,23.00
2019-04-11T08:46:15.014Z,23.70
2019-04-11T08:48:57.284Z,23.87
2019-04-11T08:51:29.594Z,22.73
2019-04-11T08:54:13.813Z,23.13
2019-04-11T08:56:45.393Z,24.33
2019-04-11T08:59:35.999Z,21.10
2019-04-11T09:02:06.934Z,20.97
2019-04-11T09:04:39.687Z,21.93
2019-04-11T09:07:13.584Z,21.77
2019-04-11T09:09:45.437Z,22.90
2019-04-11T09:12:16.352Z,22.47
2019-04-11T09:14:51.175Z,21.70
2019-04-11T09:17:23.710Z,22.67
2019-04-11T09:19:54.994Z,22.63
2019-04-11T09:22:41.480Z,23.20
2019-04-11T09:25:14.817Z,23.43
2019-04-11T09:27:48.897Z,22.77
2019-04-11T09:30:25.075Z,21.80
2019-04-11T09:33:13.487Z,23.20
2019-04-11T09:35:43.809Z,21.67
2019-04-11T09:38:16.034Z,21.87
2019-04-11T09:40:52.152Z,21.50
2019-04-11T09:43:24.424Z,22.20
2019-04-11T09:45:57.609Z,23.23
2019-04-11T09:48:46.314Z,22.60
2019-04-11T09:51:29.543Z,23.03
2019-04-11T09:54:01.919Z,23.00
2019-04-11T09:56:51.662Z,25.00
2019-04-11T09:59:36.963Z,24.60
2019-04-11T10:02:25.533Z,21.03
2019-04-11T10:04:59.924Z,22.97
2019-04-11T10:07:35.608Z,21.47
2019-04-11T10:10:12.834Z,21.73
2019-04-11T10:13:02.573Z,23.60
2019-04-11T10:15:37.592Z,21.93
2019-04-11T10:18:30.975Z,22.07
2019-04-11T10:20:59.246Z,22.47
2019-04-11T10:23:47.705Z,22.13
2019-04-11T10:26:18.190Z,23.47
2019-04-11T10:29:06.751Z,20.87
2019-04-11T10:31:38.961Z,21.63
2019-04-11T10:34:13.737Z,23.03
2019-04-11T10:36:46.028Z,21.13
2019-04-11T10:39:21.545Z,22.20
2019-04-11T10:41:55.961Z,22.23
2019-04-11T10:44:29.818Z,22.07
2019-04-11T10:47:07.243Z,22.53
2019-04-11T10:49:54.801Z,23.00
2019-04-11T10:52:26.939Z,23.57
2019-04-11T10:55:05.213Z,22.17
2019-04-11T10:57:38.249Z,23.23
2019-04-11T11:00:11.158Z,20.63
2019-04-11T11:03:03.975Z,22.70
2019-04-11T11:05:40.137Z,21.37
2019-04-11T11:08:18.004Z,22.63
2019-04-11T11:10:50.062Z,22.60
2019-04-11T11:13:39.623Z,23.10
2019-04-11T11:16:11.880Z,23.10
2019-04-11T11:19:16.380Z,22.40
2019-04-11T11:21:17.652Z,23.13
2019-04-11T11:24:07.692Z,22.33
2019-04-11T11:26:39.059Z,21.63
2019-04-11T11:29:21.196Z,22.60
2019-04-11T11:31:54.542Z,21.33
2019-04-11T11:34:32.789Z,21.53
2019-04-11T11:37:07.388Z,21.70
2019-04-11T11:39:39.591Z,21.03
2019-04-11T11:42:24.090Z,21.60
2019-04-11T11:44:59.388Z,21.93
2019-04-11T11:47:53.150Z,22.80
2019-04-11T11:50:26.647Z,24.00
2019-04-11T11:53:16.377Z,23.07
2019-04-11T11:55:49.465Z,21.60
2019-04-11T11:58:26.016Z,20.80
2019-04-11T12:01:01.183Z,23.23
2019-04-11T12:03:47.174Z,22.03
2019-04-11T12:06:22.319Z,22.23
2019-04-11T12:09:09.924Z,21.77
2019-04-11T12:11:42.246Z,23.30
2019-04-11T12:14:30.437Z,21.33
2019-04-11T12:17:08.451Z,22.17
2019-04-11T12:19:51.149Z,21.67
2019-04-11T12:22:16.526Z,22.63
2019-04-11T12:24:54.417Z,23.30
2019-04-11T12:27:40.026Z,22.20
2019-04-11T12:30:20.994Z,21.90
2019-04-11T12:32:59.239Z,21.20
2019-04-11T12:35:32.638Z,20.40
2019-04-11T12:38:07.484Z,21.40
2019-04-11T12:40:58.648Z,20.97
2019-04-11T12:43:30.796Z,21.17
2019-04-11T12:46:21.327Z,21.80
2019-04-11T12:48:51.173Z,22.53
2019-04-11T12:51:29.001Z,21.97
2019-04-11T12:54:02.869Z,20.40
2019-04-11T12:56:52.639Z,20.67
2019-04-11T12:59:23.353Z,21.00
2019-04-11T13:02:12.115Z,20.60
2019-04-11T13:04:44.977Z,24.13
2019-04-11T13:07:26.365Z,21.77
2019-04-11T13:09:58.699Z,19.60
2019-04-11T13:12:30.927Z,21.23
2019-04-11T13:15:19.125Z,19.87
2019-04-11T13:17:51.266Z,19.47
2019-04-11T13:20:39.524Z,20.30
2019-04-11T13:23:11.719Z,19.20
2019-04-11T13:25:45.540Z,19.53
2019-04-11T13:28:16.693Z,19.03
2019-04-11T13:30:46.975Z,19.63
2019-04-11T13:33:19.089Z,19.17
2019-04-11T13:36:09.403Z,18.17
2019-04-11T13:38:40.087Z,19.43
2019-04-11T13:41:29.037Z,20.13
2019-04-11T13:44:02.300Z,18.40
2019-04-11T13:46:33.222Z,18.73
2019-04-11T13:49:17.956Z,18.70
2019-04-11T13:52:07.648Z,18.23
2019-04-11T13:54:45.252Z,18.63
2019-04-11T13:57:17.402Z,20.27
2019-04-11T13:59:52.478Z,18.43
2019-04-11T14:02:24.617Z,17.77
2019-04-11T14:04:56.746Z,18.53
2019-04-11T14:07:29.943Z,18.80
2019-04-11T14:10:02.448Z,19.30
2019-04-11T14:12:34.677Z,19.00
2019-04-11T14:15:11.956Z,17.07
2019-04-11T14:17:48.402Z,17.97
2019-04-11T14:20:29.598Z,18.93
2019-04-11T14:23:01.466Z,19.30
2019-04-11T14:25:38.045Z,18.60
2019-04-11T14:28:10.187Z,17.37
2019-04-11T14:30:40.506Z,18.07
2019-04-11T14:33:11.062Z,18.77
2019-04-11T14:35:46.787Z,18.87
2019-04-11T14:38:18.927Z,17.07
2019-04-11T14:41:01.166Z,17.47
2019-04-11T14:43:25.818Z,19.07
2019-04-11T14:45:58.002Z,17.90
2019-04-11T14:48:42.280Z,17.73
2019-04-11T14:51:27.687Z,17.33
2019-04-11T14:54:08.696Z,18.20
2019-04-11T14:56:47.803Z,20.00
2019-04-11T14:59:23.961Z,20.00
2019-04-11T15:01:54.714Z,19.80
2019-04-11T15:04:30.936Z,19.03
2019-04-11T15:07:03.113Z,17.87
2019-04-11T15:09:39.539Z,17.53
2019-04-11T15:12:17.549Z,18.37
2019-04-11T15:15:04.444Z,18.93
2019-04-11T15:17:36.572Z,18.37
2019-04-11T15:20:25.540Z,28.13
2019-04-11T15:23:06.869Z,17.87
2019-04-11T15:25:38.563Z,21.87
2019-04-11T15:28:12.603Z,26.77
2019-04-11T15:30:54.751Z,40.90
2019-04-11T15:33:43.462Z,18.57
2019-04-11T15:36:15.567Z,22.10
2019-04-11T15:38:54.572Z,22.90
2019-04-11T15:41:27.187Z,23.77
2019-04-11T15:44:15.144Z,19.27
2019-04-11T15:46:47.768Z,18.57
2019-04-11T15:49:35.240Z,18.00
2019-04-11T15:52:07.640Z,17.20
2019-04-11T15:54:39.788Z,18.00
2019-04-11T15:57:12.739Z,18.23
2019-04-11T15:59:44.131Z,17.93
2019-04-11T16:02:16.769Z,19.53
2019-04-11T16:04:47.058Z,19.13
2019-04-11T16:07:23.205Z,18.47
2019-04-11T16:09:54.685Z,17.83
2019-04-11T16:12:32.760Z,18.23
2019-04-11T16:15:13.805Z,18.30
2019-04-11T16:18:02.530Z,19.70
2019-04-11T16:20:33.107Z,18.03
2019-04-11T16:23:11.204Z,18.60
2019-04-11T16:25:43.028Z,16.63
2019-04-11T16:28:20.964Z,17.80
2019-04-11T16:30:56.130Z,25.97
2019-04-11T16:33:31.184Z,53.20
2019-04-11T16:36:19.319Z,25.40
2019-04-11T16:38:52.758Z,19.20
2019-04-11T16:41:24.982Z,19.10
2019-04-11T16:43:58.837Z,17.83
2019-04-11T16:46:31.823Z,18.13
2019-04-11T16:49:02.291Z,18.70
2019-04-11T16:51:32.806Z,19.73
2019-04-11T16:54:03.295Z,17.03
2019-04-11T16:56:33.796Z,18.23
2019-04-11T16:59:04.476Z,18.17
2019-04-11T17:01:34.992Z,18.50
2019-04-11T17:04:05.516Z,19.40
2019-04-11T17:06:49.595Z,26.73
2019-04-11T17:09:26.671Z,26.73
2019-04-11T17:11:59.916Z,18.77
2019-04-11T17:14:33.056Z,17.60
2019-04-11T17:17:14.258Z,18.50
2019-04-11T17:19:36.139Z,37.93
2019-04-11T17:22:08.295Z,20.70
2019-04-11T17:24:39.558Z,18.73
2019-04-11T17:27:11.604Z,17.57
2019-04-11T17:29:42.082Z,17.37
2019-04-11T17:32:13.990Z,17.70
2019-04-11T17:34:44.545Z,16.63
2019-04-11T17:37:15.034Z,16.80
2019-04-11T17:39:46.960Z,17.97
2019-04-11T17:42:18.989Z,17.00
2019-04-11T17:44:49.483Z,15.97
2019-04-11T17:47:19.967Z,15.90
2019-04-11T17:49:50.443Z,17.67
2019-04-11T17:52:20.949Z,17.33
2019-04-11T17:54:51.966Z,16.93
2019-04-11T17:57:26.683Z,18.20
2019-04-11T17:59:59.114Z,16.60
2019-04-11T18:02:30.346Z,17.70
2019-04-11T18:05:00.848Z,15.70
2019-04-11T18:07:31.345Z,18.27
2019-04-11T18:10:01.803Z,16.63
2019-04-11T18:12:32.294Z,17.10
2019-04-11T18:15:03.046Z,16.50
2019-04-11T18:17:34.973Z,17.93
2019-04-11T18:20:09.236Z,35.03
2019-04-11T18:22:40.335Z,30.70
2019-04-11T18:25:10.942Z,17.63
2019-04-11T18:27:41.423Z,16.80
2019-04-11T18:30:13.869Z,16.60
2019-04-11T18:32:44.438Z,16.60
2019-04-11T18:35:15.002Z,19.30
2019-04-11T18:37:48.545Z,23.83
2019-04-11T18:40:19.236Z,18.70
2019-04-11T18:42:51.335Z,16.13
2019-04-11T18:45:21.882Z,16.50
2019-04-11T18:47:52.377Z,17.40
2019-04-11T18:50:23.508Z,16.83
2019-04-11T18:52:59.307Z,18.43
2019-04-11T18:55:27.493Z,17.23
2019-04-11T18:57:57.974Z,18.37
2019-04-11T19:00:30.008Z,17.27
2019-04-11T19:03:00.526Z,15.60
2019-04-11T19:05:31.238Z,15.73
2019-04-11T19:08:01.739Z,15.87
2019-04-11T19:10:32.451Z,16.70
2019-04-11T19:13:03.030Z,16.57
2019-04-11T19:15:33.566Z,17.20
2019-04-11T19:18:06.743Z,17.83
2019-04-11T19:20:37.687Z,20.20
2019-04-11T19:23:08.603Z,20.57
2019-04-11T19:25:44.357Z,16.97
2019-04-11T19:28:11.399Z,16.07
2019-04-11T19:30:42.496Z,15.60
2019-04-11T19:33:13.582Z,16.40
2019-04-11T19:35:44.160Z,16.17
2019-04-11T19:38:28.271Z,15.90
2019-04-11T19:40:58.765Z,14.83
2019-04-11T19:43:30.303Z,15.13
2019-04-11T19:46:00.772Z,14.80
2019-04-11T19:48:35.526Z,17.03
2019-04-11T19:51:05.981Z,16.87
2019-04-11T19:53:36.437Z,15.20
2019-04-11T19:56:08.576Z,15.10
2019-04-11T19:58:39.067Z,15.57
2019-04-11T20:01:09.573Z,16.70
2019-04-11T20:03:40.140Z,14.60
2019-04-11T20:06:13.117Z,14.80
2019-04-11T20:08:42.805Z,15.33
2019-04-11T20:11:13.320Z,14.77
2019-04-11T20:13:43.785Z,15.73
2019-04-11T20:16:14.283Z,14.33
2019-04-11T20:18:51.046Z,14.37
2019-04-11T20:21:18.922Z,14.53
2019-04-11T20:23:49.462Z,13.60
2019-04-11T20:26:21.262Z,14.10
2019-04-11T20:28:51.765Z,14.53
2019-04-11T20:31:22.219Z,14.40
2019-04-11T20:33:52.749Z,14.30
2019-04-11T20:36:32.822Z,13.70
2019-04-11T20:38:55.521Z,14.40
2019-04-11T20:41:26.095Z,13.90
2019-04-11T20:43:57.206Z,13.37
2019-04-11T20:46:29.205Z,13.73
2019-04-11T20:49:00.277Z,12.30
2019-04-11T20:51:30.793Z,13.93
2019-04-11T20:54:02.085Z,12.87
2019-04-11T20:56:34.233Z,11.33
2019-04-11T20:59:04.730Z,12.97
2019-04-11T21:01:36.620Z,13.17
2019-04-11T21:04:07.118Z,12.10
2019-04-11T21:06:37.589Z,14.33
2019-04-11T21:09:10.953Z,12.33
2019-04-11T21:11:41.482Z,12.70
2019-04-11T21:14:11.972Z,10.90
2019-04-11T21:16:42.460Z,13.27
2019-04-11T21:19:12.955Z,11.80
2019-04-11T21:21:43.416Z,12.87
2019-04-11T21:24:13.901Z,13.07
2019-04-11T21:26:44.400Z,11.07
2019-04-11T21:29:14.855Z,12.27
2019-04-11T21:31:45.345Z,12.10
2019-04-11T21:34:15.806Z,11.40
2019-04-11T21:36:46.301Z,11.30
2019-04-11T21:39:20.749Z,11.20
2019-04-11T21:41:51.301Z,11.47
2019-04-11T21:44:22.653Z,11.90
2019-04-11T21:46:53.138Z,10.73
2019-04-11T21:49:26.913Z,11.90
2019-04-11T21:51:58.078Z,12.50
2019-04-11T21:54:28.540Z,10.60
2019-04-11T21:57:02.020Z,10.70
2019-04-11T21:59:36.016Z,11.80
2019-04-11T22:02:09.944Z,10.90
2019-04-11T22:04:41.657Z,11.43
2019-04-11T22:07:12.230Z,10.93
2019-04-11T22:09:43.801Z,11.23
2019-04-11T22:12:17.012Z,11.00
2019-04-11T22:14:47.564Z,11.03
2019-04-11T22:17:21.035Z,11.80
2019-04-11T22:19:51.498Z,12.57
2019-04-11T22:22:21.978Z,10.87
2019-04-11T22:24:53.000Z,11.00
2019-04-11T22:27:24.641Z,10.97
2019-04-11T22:29:56.493Z,11.67
2019-04-11T22:32:31.959Z,11.17
2019-04-11T22:35:02.457Z,10.87
2019-04-11T22:37:34.471Z,11.57
2019-04-11T22:40:09.358Z,10.80
2019-04-11T22:42:42.786Z,12.70
2019-04-11T22:45:14.537Z,10.80
2019-04-11T22:47:46.769Z,11.50
2019-04-11T22:50:17.338Z,11.23
2019-04-11T22:52:49.181Z,10.80
2019-04-11T22:55:19.652Z,10.50
2019-04-11T22:57:52.513Z,10.83
2019-04-11T23:00:23.826Z,11.20
2019-04-11T23:02:56.496Z,10.20
2019-04-11T23:05:27.167Z,11.80
2019-04-11T23:08:02.757Z,11.67
2019-04-11T23:10:34.708Z,11.40
2019-04-11T23:13:05.263Z,11.50
2019-04-11T23:15:35.764Z,11.63
2019-04-11T23:18:06.219Z,11.80
2019-04-11T23:20:38.360Z,10.53
2019-04-11T23:23:11.084Z,12.10
2019-04-11T23:25:44.077Z,11.53
2019-04-11T23:28:15.861Z,11.33
2019-04-11T23:30:50.318Z,10.30
2019-04-11T23:33:21.421Z,11.20
2019-04-11T23:35:55.770Z,11.10
2019-04-11T23:38:27.955Z,10.47
2019-04-11T23:40:58.461Z,11.13
2019-04-11T23:43:28.927Z,10.47
2019-04-11T23:45:59.466Z,9.97
2019-04-11T23:48:32.745Z,9.50
2019-04-11T23:51:04.778Z,10.67
2019-04-11T23:53:35.343Z,9.43
2019-04-11T23:56:05.887Z,10.53
2019-04-11T23:58:37.853Z,9.60
